sensor_id;sensor_type;location;lat;lon;timestamp;P1;durP1;ratioP1;P2;durP2;ratioP2
49826;SDS011;35715;51.570;6.036;2023-07-08T00:01:54;4.07;;;2.30;;
49826;SDS011;35715;51.570;6.036;2023-07-08T00:04:20;2.95;;;2.03;;
49826;SDS011;35715;51.570;6.036;2023-07-08T00:06:45;3.65;;;2.47;;
49826;SDS011;35715;51.570;6.036;2023-07-08T00:09:11;4.32;;;2.20;;
49826;SDS011;35715;51.570;6.036;2023-07-08T00:11:37;3.22;;;1.70;;
49826;SDS011;35715;51.570;6.036;2023-07-08T00:14:02;5.68;;;2.75;;
49826;SDS011;35715;51.570;6.036;2023-07-08T00:16:28;4.60;;;2.67;;
49826;SDS011;35715;51.570;6.036;2023-07-08T00:18:53;7.60;;;2.97;;
49826;SDS011;35715;51.570;6.036;2023-07-08T00:21:18;2.75;;;2.53;;
49826;SDS011;35715;51.570;6.036;2023-07-08T00:23:45;5.40;;;2.50;;
49826;SDS011;35715;51.570;6.036;2023-07-08T00:28:50;2.67;;;2.13;;
49826;SDS011;35715;51.570;6.036;2023-07-08T00:31:16;4.80;;;2.95;;
49826;SDS011;35715;51.570;6.036;2023-07-08T00:33:42;3.33;;;2.42;;
49826;SDS011;35715;51.570;6.036;2023-07-08T00:36:11;3.95;;;3.17;;
49826;SDS011;35715;51.570;6.036;2023-07-08T00:38:37;2.95;;;2.47;;
49826;SDS011;35715;51.570;6.036;2023-07-08T00:41:07;5.13;;;2.28;;
49826;SDS011;35715;51.570;6.036;2023-07-08T00:43:38;2.60;;;2.40;;
49826;SDS011;35715;51.570;6.036;2023-07-08T00:49:00;5.18;;;2.88;;
49826;SDS011;35715;51.570;6.036;2023-07-08T00:51:36;10.25;;;3.08;;
49826;SDS011;35715;51.570;6.036;2023-07-08T00:54:03;5.18;;;2.72;;
49826;SDS011;35715;51.570;6.036;2023-07-08T00:56:30;3.50;;;2.72;;
49826;SDS011;35715;51.570;6.036;2023-07-08T00:59:04;3.65;;;2.85;;
49826;SDS011;35715;51.570;6.036;2023-07-08T01:01:37;4.68;;;2.72;;
49826;SDS011;35715;51.570;6.036;2023-07-08T01:04:07;3.63;;;3.22;;
49826;SDS011;35715;51.570;6.036;2023-07-08T01:06:41;2.85;;;2.40;;
49826;SDS011;35715;51.570;6.036;2023-07-08T01:09:10;5.47;;;3.60;;
49826;SDS011;35715;51.570;6.036;2023-07-08T01:11:39;4.05;;;2.70;;
49826;SDS011;35715;51.570;6.036;2023-07-08T01:14:06;2.10;;;1.90;;
49826;SDS011;35715;51.570;6.036;2023-07-08T01:16:34;4.82;;;2.28;;
49826;SDS011;35715;51.570;6.036;2023-07-08T01:19:01;8.55;;;3.30;;
49826;SDS011;35715;51.570;6.036;2023-07-08T01:21:33;3.13;;;2.42;;
49826;SDS011;35715;51.570;6.036;2023-07-08T01:24:02;6.10;;;2.40;;
49826;SDS011;35715;51.570;6.036;2023-07-08T01:26:30;3.17;;;2.58;;
49826;SDS011;35715;51.570;6.036;2023-07-08T01:28:58;3.80;;;2.70;;
49826;SDS011;35715;51.570;6.036;2023-07-08T01:31:24;4.88;;;2.60;;
49826;SDS011;35715;51.570;6.036;2023-07-08T01:33:51;6.03;;;4.03;;
49826;SDS011;35715;51.570;6.036;2023-07-08T01:36:17;4.63;;;2.70;;
49826;SDS011;35715;51.570;6.036;2023-07-08T01:38:42;3.03;;;2.72;;
49826;SDS011;35715;51.570;6.036;2023-07-08T01:41:13;3.08;;;2.80;;
49826;SDS011;35715;51.570;6.036;2023-07-08T01:43:40;5.13;;;2.45;;
49826;SDS011;35715;51.570;6.036;2023-07-08T01:46:18;3.67;;;3.38;;
49826;SDS011;35715;51.570;6.036;2023-07-08T01:48:48;4.75;;;2.70;;
49826;SDS011;35715;51.570;6.036;2023-07-08T01:51:18;5.05;;;3.00;;
49826;SDS011;35715;51.570;6.036;2023-07-08T01:53:44;4.68;;;3.03;;
49826;SDS011;35715;51.570;6.036;2023-07-08T01:56:10;4.40;;;3.63;;
49826;SDS011;35715;51.570;6.036;2023-07-08T01:58:37;2.53;;;2.33;;
49826;SDS011;35715;51.570;6.036;2023-07-08T02:01:03;2.72;;;2.45;;
49826;SDS011;35715;51.570;6.036;2023-07-08T02:03:30;3.85;;;2.63;;
49826;SDS011;35715;51.570;6.036;2023-07-08T02:05:56;3.60;;;2.63;;
49826;SDS011;35715;51.570;6.036;2023-07-08T02:08:21;3.13;;;2.92;;
49826;SDS011;35715;51.570;6.036;2023-07-08T02:10:51;3.65;;;3.38;;
49826;SDS011;35715;51.570;6.036;2023-07-08T02:13:18;3.15;;;2.80;;
49826;SDS011;35715;51.570;6.036;2023-07-08T02:15:44;3.08;;;2.47;;
49826;SDS011;35715;51.570;6.036;2023-07-08T02:18:09;8.05;;;3.40;;
49826;SDS011;35715;51.570;6.036;2023-07-08T02:20:34;5.15;;;3.25;;
49826;SDS011;35715;51.570;6.036;2023-07-08T02:23:00;2.72;;;2.53;;
49826;SDS011;35715;51.570;6.036;2023-07-08T02:25:25;5.18;;;3.05;;
49826;SDS011;35715;51.570;6.036;2023-07-08T02:27:51;6.28;;;3.00;;
49826;SDS011;35715;51.570;6.036;2023-07-08T02:30:19;3.45;;;3.10;;
49826;SDS011;35715;51.570;6.036;2023-07-08T02:32:45;3.53;;;3.22;;
49826;SDS011;35715;51.570;6.036;2023-07-08T02:35:21;6.32;;;3.83;;
49826;SDS011;35715;51.570;6.036;2023-07-08T02:37:46;3.22;;;2.95;;
49826;SDS011;35715;51.570;6.036;2023-07-08T02:40:12;3.83;;;3.20;;
49826;SDS011;35715;51.570;6.036;2023-07-08T02:42:39;3.05;;;2.75;;
49826;SDS011;35715;51.570;6.036;2023-07-08T02:45:04;6.85;;;3.50;;
49826;SDS011;35715;51.570;6.036;2023-07-08T02:47:30;3.50;;;3.22;;
49826;SDS011;35715;51.570;6.036;2023-07-08T02:49:55;3.47;;;2.95;;
49826;SDS011;35715;51.570;6.036;2023-07-08T02:52:21;4.97;;;2.65;;
49826;SDS011;35715;51.570;6.036;2023-07-08T02:54:46;2.97;;;2.58;;
49826;SDS011;35715;51.570;6.036;2023-07-08T02:57:12;3.03;;;2.47;;
49826;SDS011;35715;51.570;6.036;2023-07-08T02:59:37;9.00;;;3.47;;
49826;SDS011;35715;51.570;6.036;2023-07-08T03:02:03;3.78;;;3.33;;
49826;SDS011;35715;51.570;6.036;2023-07-08T03:04:29;5.65;;;3.15;;
49826;SDS011;35715;51.570;6.036;2023-07-08T03:06:55;3.88;;;3.58;;
49826;SDS011;35715;51.570;6.036;2023-07-08T03:09:20;3.50;;;3.20;;
49826;SDS011;35715;51.570;6.036;2023-07-08T03:11:46;3.45;;;2.83;;
49826;SDS011;35715;51.570;6.036;2023-07-08T03:14:11;2.55;;;2.35;;
49826;SDS011;35715;51.570;6.036;2023-07-08T03:16:37;4.10;;;3.17;;
49826;SDS011;35715;51.570;6.036;2023-07-08T03:19:02;6.35;;;3.13;;
49826;SDS011;35715;51.570;6.036;2023-07-08T03:21:30;6.30;;;3.50;;
49826;SDS011;35715;51.570;6.036;2023-07-08T03:23:56;3.53;;;3.20;;
49826;SDS011;35715;51.570;6.036;2023-07-08T03:26:23;4.07;;;3.72;;
49826;SDS011;35715;51.570;6.036;2023-07-08T03:28:50;8.75;;;5.20;;
49826;SDS011;35715;51.570;6.036;2023-07-08T03:31:16;3.53;;;2.83;;
49826;SDS011;35715;51.570;6.036;2023-07-08T03:33:41;4.63;;;3.70;;
49826;SDS011;35715;51.570;6.036;2023-07-08T03:36:09;5.38;;;3.25;;
49826;SDS011;35715;51.570;6.036;2023-07-08T03:38:38;4.57;;;3.45;;
49826;SDS011;35715;51.570;6.036;2023-07-08T03:41:04;6.20;;;3.03;;
49826;SDS011;35715;51.570;6.036;2023-07-08T03:43:29;3.55;;;3.25;;
49826;SDS011;35715;51.570;6.036;2023-07-08T03:45:55;4.90;;;3.33;;
49826;SDS011;35715;51.570;6.036;2023-07-08T03:48:20;3.22;;;2.67;;
49826;SDS011;35715;51.570;6.036;2023-07-08T03:50:46;3.67;;;3.28;;
49826;SDS011;35715;51.570;6.036;2023-07-08T03:53:11;6.22;;;3.22;;
49826;SDS011;35715;51.570;6.036;2023-07-08T03:55:36;3.15;;;2.67;;
49826;SDS011;35715;51.570;6.036;2023-07-08T03:58:02;3.17;;;2.90;;
49826;SDS011;35715;51.570;6.036;2023-07-08T04:00:27;3.45;;;3.15;;
49826;SDS011;35715;51.570;6.036;2023-07-08T04:02:55;8.63;;;3.65;;
49826;SDS011;35715;51.570;6.036;2023-07-08T04:05:21;3.80;;;3.50;;
49826;SDS011;35715;51.570;6.036;2023-07-08T04:07:48;4.00;;;3.60;;
49826;SDS011;35715;51.570;6.036;2023-07-08T04:10:14;6.90;;;2.83;;
49826;SDS011;35715;51.570;6.036;2023-07-08T04:12:40;6.07;;;3.40;;
49826;SDS011;35715;51.570;6.036;2023-07-08T04:15:09;3.70;;;3.40;;
49826;SDS011;35715;51.570;6.036;2023-07-08T04:17:40;4.30;;;3.72;;
49826;SDS011;35715;51.570;6.036;2023-07-08T04:20:10;5.00;;;3.08;;
49826;SDS011;35715;51.570;6.036;2023-07-08T04:22:39;3.28;;;2.97;;
49826;SDS011;35715;51.570;6.036;2023-07-08T04:25:04;6.22;;;2.78;;
49826;SDS011;35715;51.570;6.036;2023-07-08T04:27:31;4.47;;;3.15;;
49826;SDS011;35715;51.570;6.036;2023-07-08T04:29:56;10.70;;;3.10;;
49826;SDS011;35715;51.570;6.036;2023-07-08T04:32:22;4.30;;;2.50;;
49826;SDS011;35715;51.570;6.036;2023-07-08T04:34:51;3.40;;;3.00;;
49826;SDS011;35715;51.570;6.036;2023-07-08T04:37:17;4.85;;;3.55;;
49826;SDS011;35715;51.570;6.036;2023-07-08T04:39:44;3.42;;;2.95;;
49826;SDS011;35715;51.570;6.036;2023-07-08T04:42:09;3.38;;;2.78;;
49826;SDS011;35715;51.570;6.036;2023-07-08T04:44:38;3.83;;;3.53;;
49826;SDS011;35715;51.570;6.036;2023-07-08T04:47:03;3.88;;;3.10;;
49826;SDS011;35715;51.570;6.036;2023-07-08T04:49:29;8.77;;;3.40;;
49826;SDS011;35715;51.570;6.036;2023-07-08T04:51:56;5.30;;;2.83;;
49826;SDS011;35715;51.570;6.036;2023-07-08T04:54:23;4.43;;;2.97;;
49826;SDS011;35715;51.570;6.036;2023-07-08T04:56:48;5.43;;;3.47;;
49826;SDS011;35715;51.570;6.036;2023-07-08T04:59:16;3.10;;;2.90;;
49826;SDS011;35715;51.570;6.036;2023-07-08T05:01:43;4.05;;;3.67;;
49826;SDS011;35715;51.570;6.036;2023-07-08T05:04:10;3.90;;;3.42;;
49826;SDS011;35715;51.570;6.036;2023-07-08T05:06:38;8.00;;;3.80;;
49826;SDS011;35715;51.570;6.036;2023-07-08T05:09:03;7.32;;;3.33;;
49826;SDS011;35715;51.570;6.036;2023-07-08T05:11:29;4.70;;;4.03;;
49826;SDS011;35715;51.570;6.036;2023-07-08T05:13:55;17.83;;;4.93;;
49826;SDS011;35715;51.570;6.036;2023-07-08T05:16:21;4.35;;;2.50;;
49826;SDS011;35715;51.570;6.036;2023-07-08T05:18:46;3.92;;;3.15;;
49826;SDS011;35715;51.570;6.036;2023-07-08T05:21:12;3.65;;;2.55;;
49826;SDS011;35715;51.570;6.036;2023-07-08T05:23:38;5.03;;;2.90;;
49826;SDS011;35715;51.570;6.036;2023-07-08T05:26:08;3.15;;;2.85;;
49826;SDS011;35715;51.570;6.036;2023-07-08T05:28:34;4.28;;;2.75;;
49826;SDS011;35715;51.570;6.036;2023-07-08T05:30:59;5.88;;;3.50;;
49826;SDS011;35715;51.570;6.036;2023-07-08T05:33:25;7.72;;;3.10;;
49826;SDS011;35715;51.570;6.036;2023-07-08T05:35:52;6.18;;;4.07;;
49826;SDS011;35715;51.570;6.036;2023-07-08T05:38:19;5.40;;;2.70;;
49826;SDS011;35715;51.570;6.036;2023-07-08T05:40:53;3.55;;;2.67;;
49826;SDS011;35715;51.570;6.036;2023-07-08T05:43:20;4.15;;;3.13;;
49826;SDS011;35715;51.570;6.036;2023-07-08T05:45:46;5.78;;;3.65;;
49826;SDS011;35715;51.570;6.036;2023-07-08T05:48:12;5.18;;;3.55;;
49826;SDS011;35715;51.570;6.036;2023-07-08T05:50:38;3.08;;;2.78;;
49826;SDS011;35715;51.570;6.036;2023-07-08T05:53:04;6.57;;;3.35;;
49826;SDS011;35715;51.570;6.036;2023-07-08T05:55:30;5.60;;;3.83;;
49826;SDS011;35715;51.570;6.036;2023-07-08T05:57:57;4.18;;;3.05;;
49826;SDS011;35715;51.570;6.036;2023-07-08T06:00:22;3.92;;;3.60;;
49826;SDS011;35715;51.570;6.036;2023-07-08T06:02:47;5.18;;;3.63;;
49826;SDS011;35715;51.570;6.036;2023-07-08T06:05:13;4.05;;;3.40;;
49826;SDS011;35715;51.570;6.036;2023-07-08T06:07:38;16.60;;;4.43;;
49826;SDS011;35715;51.570;6.036;2023-07-08T06:10:04;6.18;;;3.30;;
49826;SDS011;35715;51.570;6.036;2023-07-08T06:12:29;9.25;;;3.50;;
49826;SDS011;35715;51.570;6.036;2023-07-08T06:14:55;6.10;;;4.00;;
49826;SDS011;35715;51.570;6.036;2023-07-08T06:17:21;4.22;;;3.45;;
49826;SDS011;35715;51.570;6.036;2023-07-08T06:19:47;7.45;;;3.85;;
49826;SDS011;35715;51.570;6.036;2023-07-08T06:22:12;8.38;;;4.30;;
49826;SDS011;35715;51.570;6.036;2023-07-08T06:24:38;8.05;;;4.22;;
49826;SDS011;35715;51.570;6.036;2023-07-08T06:27:04;12.45;;;4.28;;
49826;SDS011;35715;51.570;6.036;2023-07-08T06:29:29;5.07;;;3.65;;
49826;SDS011;35715;51.570;6.036;2023-07-08T06:31:55;10.48;;;3.75;;
49826;SDS011;35715;51.570;6.036;2023-07-08T06:34:21;5.63;;;3.33;;
49826;SDS011;35715;51.570;6.036;2023-07-08T06:36:48;7.53;;;3.80;;
49826;SDS011;35715;51.570;6.036;2023-07-08T06:39:14;4.95;;;3.65;;
49826;SDS011;35715;51.570;6.036;2023-07-08T06:41:40;3.45;;;3.15;;
49826;SDS011;35715;51.570;6.036;2023-07-08T06:44:05;3.30;;;3.00;;
49826;SDS011;35715;51.570;6.036;2023-07-08T06:46:31;7.45;;;3.90;;
49826;SDS011;35715;51.570;6.036;2023-07-08T06:48:56;4.60;;;3.33;;
49826;SDS011;35715;51.570;6.036;2023-07-08T06:51:21;5.93;;;4.03;;
49826;SDS011;35715;51.570;6.036;2023-07-08T06:53:47;5.75;;;3.03;;
49826;SDS011;35715;51.570;6.036;2023-07-08T06:56:12;4.72;;;4.25;;
49826;SDS011;35715;51.570;6.036;2023-07-08T06:58:37;12.23;;;4.50;;
49826;SDS011;35715;51.570;6.036;2023-07-08T07:01:03;7.72;;;3.72;;
49826;SDS011;35715;51.570;6.036;2023-07-08T07:03:28;13.90;;;4.57;;
49826;SDS011;35715;51.570;6.036;2023-07-08T07:05:54;7.97;;;4.35;;
49826;SDS011;35715;51.570;6.036;2023-07-08T07:08:19;8.30;;;4.20;;
49826;SDS011;35715;51.570;6.036;2023-07-08T07:10:45;6.53;;;3.55;;
49826;SDS011;35715;51.570;6.036;2023-07-08T07:13:10;5.35;;;3.92;;
49826;SDS011;35715;51.570;6.036;2023-07-08T07:15:35;3.85;;;3.55;;
49826;SDS011;35715;51.570;6.036;2023-07-08T07:18:01;7.50;;;4.35;;
49826;SDS011;35715;51.570;6.036;2023-07-08T07:20:27;5.18;;;3.58;;
49826;SDS011;35715;51.570;6.036;2023-07-08T07:22:52;6.18;;;5.07;;
49826;SDS011;35715;51.570;6.036;2023-07-08T07:25:18;4.80;;;4.40;;
49826;SDS011;35715;51.570;6.036;2023-07-08T07:27:44;4.93;;;4.13;;
49826;SDS011;35715;51.570;6.036;2023-07-08T07:30:10;4.70;;;3.90;;
49826;SDS011;35715;51.570;6.036;2023-07-08T07:32:40;8.27;;;4.47;;
49826;SDS011;35715;51.570;6.036;2023-07-08T07:35:09;5.22;;;4.20;;
49826;SDS011;35715;51.570;6.036;2023-07-08T07:37:39;8.32;;;4.68;;
49826;SDS011;35715;51.570;6.036;2023-07-08T07:40:06;5.32;;;4.35;;
49826;SDS011;35715;51.570;6.036;2023-07-08T07:42:37;13.75;;;5.25;;
49826;SDS011;35715;51.570;6.036;2023-07-08T07:45:04;6.03;;;5.05;;
49826;SDS011;35715;51.570;6.036;2023-07-08T07:47:30;9.32;;;5.63;;
49826;SDS011;35715;51.570;6.036;2023-07-08T07:49:55;4.35;;;3.95;;
49826;SDS011;35715;51.570;6.036;2023-07-08T07:52:21;5.25;;;4.60;;
49826;SDS011;35715;51.570;6.036;2023-07-08T07:54:49;5.93;;;4.53;;
49826;SDS011;35715;51.570;6.036;2023-07-08T07:57:16;9.38;;;5.55;;
49826;SDS011;35715;51.570;6.036;2023-07-08T07:59:41;8.20;;;4.60;;
49826;SDS011;35715;51.570;6.036;2023-07-08T08:02:07;7.95;;;4.97;;
49826;SDS011;35715;51.570;6.036;2023-07-08T08:04:33;6.70;;;5.22;;
49826;SDS011;35715;51.570;6.036;2023-07-08T08:06:58;5.95;;;5.15;;
49826;SDS011;35715;51.570;6.036;2023-07-08T08:09:24;12.75;;;5.60;;
49826;SDS011;35715;51.570;6.036;2023-07-08T08:11:49;5.57;;;5.07;;
49826;SDS011;35715;51.570;6.036;2023-07-08T08:14:16;6.03;;;4.90;;
49826;SDS011;35715;51.570;6.036;2023-07-08T08:16:41;5.15;;;4.57;;
49826;SDS011;35715;51.570;6.036;2023-07-08T08:19:07;7.38;;;5.60;;
49826;SDS011;35715;51.570;6.036;2023-07-08T08:21:32;14.80;;;4.95;;
49826;SDS011;35715;51.570;6.036;2023-07-08T08:23:57;13.13;;;5.38;;
49826;SDS011;35715;51.570;6.036;2023-07-08T08:26:25;10.07;;;5.82;;
49826;SDS011;35715;51.570;6.036;2023-07-08T08:28:50;7.72;;;5.10;;
49826;SDS011;35715;51.570;6.036;2023-07-08T08:31:16;6.85;;;5.82;;
49826;SDS011;35715;51.570;6.036;2023-07-08T08:33:41;8.25;;;6.18;;
49826;SDS011;35715;51.570;6.036;2023-07-08T08:36:07;5.85;;;5.20;;
49826;SDS011;35715;51.570;6.036;2023-07-08T08:38:34;9.05;;;5.10;;
49826;SDS011;35715;51.570;6.036;2023-07-08T08:41:03;6.35;;;5.53;;
49826;SDS011;35715;51.570;6.036;2023-07-08T08:43:35;9.32;;;6.95;;
49826;SDS011;35715;51.570;6.036;2023-07-08T08:46:04;9.20;;;5.65;;
49826;SDS011;35715;51.570;6.036;2023-07-08T08:48:37;9.05;;;6.43;;
49826;SDS011;35715;51.570;6.036;2023-07-08T08:51:21;12.00;;;6.10;;
49826;SDS011;35715;51.570;6.036;2023-07-08T08:53:51;4.95;;;4.53;;
49826;SDS011;35715;51.570;6.036;2023-07-08T08:56:22;10.60;;;5.45;;
49826;SDS011;35715;51.570;6.036;2023-07-08T08:59:04;6.35;;;5.18;;
49826;SDS011;35715;51.570;6.036;2023-07-08T09:01:41;7.03;;;5.70;;
49826;SDS011;35715;51.570;6.036;2023-07-08T09:04:11;11.68;;;4.93;;
49826;SDS011;35715;51.570;6.036;2023-07-08T09:06:41;6.75;;;4.78;;
49826;SDS011;35715;51.570;6.036;2023-07-08T09:09:12;10.25;;;6.65;;
49826;SDS011;35715;51.570;6.036;2023-07-08T09:14:26;12.07;;;6.18;;
49826;SDS011;35715;51.570;6.036;2023-07-08T09:16:56;20.70;;;5.93;;
49826;SDS011;35715;51.570;6.036;2023-07-08T09:19:24;8.98;;;5.25;;
49826;SDS011;35715;51.570;6.036;2023-07-08T09:22:05;6.07;;;5.10;;
49826;SDS011;35715;51.570;6.036;2023-07-08T09:24:45;9.88;;;5.43;;
49826;SDS011;35715;51.570;6.036;2023-07-08T09:27:15;6.68;;;6.00;;
49826;SDS011;35715;51.570;6.036;2023-07-08T09:29:40;10.25;;;5.50;;
49826;SDS011;35715;51.570;6.036;2023-07-08T09:34:53;6.32;;;5.70;;
49826;SDS011;35715;51.570;6.036;2023-07-08T09:37:28;6.60;;;5.28;;
49826;SDS011;35715;51.570;6.036;2023-07-08T09:39:54;6.35;;;5.30;;
49826;SDS011;35715;51.570;6.036;2023-07-08T09:42:23;6.78;;;6.07;;
49826;SDS011;35715;51.570;6.036;2023-07-08T09:44:54;7.75;;;5.80;;
49826;SDS011;35715;51.570;6.036;2023-07-08T09:47:23;7.65;;;4.93;;
49826;SDS011;35715;51.570;6.036;2023-07-08T09:49:51;10.85;;;6.03;;
49826;SDS011;35715;51.570;6.036;2023-07-08T09:52:18;7.05;;;6.43;;
49826;SDS011;35715;51.570;6.036;2023-07-08T09:54:44;7.07;;;4.95;;
49826;SDS011;35715;51.570;6.036;2023-07-08T09:57:21;11.30;;;6.40;;
49826;SDS011;35715;51.570;6.036;2023-07-08T10:00:03;17.45;;;6.28;;
49826;SDS011;35715;51.570;6.036;2023-07-08T10:02:46;6.10;;;5.50;;
49826;SDS011;35715;51.570;6.036;2023-07-08T10:05:25;8.18;;;5.93;;
49826;SDS011;35715;51.570;6.036;2023-07-08T10:07:56;10.20;;;5.35;;
49826;SDS011;35715;51.570;6.036;2023-07-08T10:10:26;8.88;;;6.15;;
49826;SDS011;35715;51.570;6.036;2023-07-08T10:12:56;14.65;;;7.28;;
49826;SDS011;35715;51.570;6.036;2023-07-08T10:15:30;10.18;;;5.45;;
49826;SDS011;35715;51.570;6.036;2023-07-08T10:18:01;12.43;;;5.93;;
49826;SDS011;35715;51.570;6.036;2023-07-08T10:20:29;6.72;;;6.00;;
49826;SDS011;35715;51.570;6.036;2023-07-08T10:23:22;9.65;;;6.20;;
49826;SDS011;35715;51.570;6.036;2023-07-08T10:26:08;8.93;;;5.63;;
49826;SDS011;35715;51.570;6.036;2023-07-08T10:36:41;7.50;;;6.80;;
49826;SDS011;35715;51.570;6.036;2023-07-08T10:42:18;14.60;;;11.43;;
49826;SDS011;35715;51.570;6.036;2023-07-08T10:44:55;8.48;;;7.60;;
49826;SDS011;35715;51.570;6.036;2023-07-08T10:55:48;8.18;;;6.10;;
49826;SDS011;35715;51.570;6.036;2023-07-08T11:01:10;9.35;;;5.93;;
49826;SDS011;35715;51.570;6.036;2023-07-08T11:06:22;4.95;;;4.45;;
49826;SDS011;35715;51.570;6.036;2023-07-08T11:09:02;7.80;;;6.18;;
49826;SDS011;35715;51.570;6.036;2023-07-08T11:11:32;6.47;;;5.88;;
49826;SDS011;35715;51.570;6.036;2023-07-08T11:14:20;6.22;;;5.65;;
49826;SDS011;35715;51.570;6.036;2023-07-08T11:19:59;8.25;;;6.82;;
49826;SDS011;35715;51.570;6.036;2023-07-08T11:22:32;8.98;;;6.32;;
49826;SDS011;35715;51.570;6.036;2023-07-08T11:25:01;6.93;;;6.28;;
49826;SDS011;35715;51.570;6.036;2023-07-08T11:27:35;8.95;;;5.47;;
49826;SDS011;35715;51.570;6.036;2023-07-08T11:30:12;10.02;;;6.32;;
49826;SDS011;35715;51.570;6.036;2023-07-08T11:32:41;8.88;;;5.40;;
49826;SDS011;35715;51.570;6.036;2023-07-08T11:35:19;5.97;;;5.43;;
49826;SDS011;35715;51.570;6.036;2023-07-08T11:37:56;7.90;;;6.60;;
49826;SDS011;35715;51.570;6.036;2023-07-08T11:40:22;9.80;;;5.95;;
49826;SDS011;35715;51.570;6.036;2023-07-08T11:42:49;7.20;;;6.50;;
49826;SDS011;35715;51.570;6.036;2023-07-08T11:47:44;8.20;;;5.93;;
49826;SDS011;35715;51.570;6.036;2023-07-08T11:50:20;8.25;;;5.40;;
49826;SDS011;35715;51.570;6.036;2023-07-08T11:52:59;5.57;;;5.07;;
49826;SDS011;35715;51.570;6.036;2023-07-08T11:55:34;6.70;;;5.13;;
49826;SDS011;35715;51.570;6.036;2023-07-08T11:58:02;6.75;;;6.05;;
49826;SDS011;35715;51.570;6.036;2023-07-08T12:00:32;11.95;;;6.25;;
49826;SDS011;35715;51.570;6.036;2023-07-08T12:03:03;7.40;;;5.70;;
49826;SDS011;35715;51.570;6.036;2023-07-08T12:05:43;6.50;;;5.88;;
49826;SDS011;35715;51.570;6.036;2023-07-08T12:08:13;9.27;;;6.68;;
49826;SDS011;35715;51.570;6.036;2023-07-08T12:10:48;9.70;;;5.90;;
49826;SDS011;35715;51.570;6.036;2023-07-08T12:13:20;6.60;;;5.45;;
49826;SDS011;35715;51.570;6.036;2023-07-08T12:15:48;8.63;;;6.18;;
49826;SDS011;35715;51.570;6.036;2023-07-08T12:18:15;6.45;;;5.28;;
49826;SDS011;35715;51.570;6.036;2023-07-08T12:20:45;12.10;;;5.68;;
49826;SDS011;35715;51.570;6.036;2023-07-08T12:23:17;6.35;;;5.28;;
49826;SDS011;35715;51.570;6.036;2023-07-08T12:25:45;17.98;;;6.15;;
49826;SDS011;35715;51.570;6.036;2023-07-08T12:28:11;10.13;;;5.97;;
49826;SDS011;35715;51.570;6.036;2023-07-08T12:30:37;9.73;;;6.00;;
49826;SDS011;35715;51.570;6.036;2023-07-08T12:33:05;10.65;;;5.22;;
49826;SDS011;35715;51.570;6.036;2023-07-08T12:35:38;6.28;;;5.35;;
49826;SDS011;35715;51.570;6.036;2023-07-08T12:38:19;12.10;;;6.47;;
49826;SDS011;35715;51.570;6.036;2023-07-08T12:41:00;9.88;;;7.20;;
49826;SDS011;35715;51.570;6.036;2023-07-08T12:43:30;11.23;;;5.72;;
49826;SDS011;35715;51.570;6.036;2023-07-08T12:45:55;8.27;;;6.15;;
49826;SDS011;35715;51.570;6.036;2023-07-08T12:48:21;8.13;;;6.53;;
49826;SDS011;35715;51.570;6.036;2023-07-08T12:50:46;7.07;;;6.13;;
49826;SDS011;35715;51.570;6.036;2023-07-08T12:53:15;7.10;;;5.15;;
49826;SDS011;35715;51.570;6.036;2023-07-08T12:55:41;10.30;;;5.25;;
49826;SDS011;35715;51.570;6.036;2023-07-08T12:58:19;5.32;;;4.82;;
49826;SDS011;35715;51.570;6.036;2023-07-08T13:00:50;6.75;;;4.60;;
49826;SDS011;35715;51.570;6.036;2023-07-08T13:03:17;11.00;;;5.80;;
49826;SDS011;35715;51.570;6.036;2023-07-08T13:05:47;8.48;;;5.63;;
49826;SDS011;35715;51.570;6.036;2023-07-08T13:08:14;6.30;;;4.88;;
49826;SDS011;35715;51.570;6.036;2023-07-08T13:10:42;6.53;;;5.40;;
49826;SDS011;35715;51.570;6.036;2023-07-08T13:13:12;7.15;;;5.20;;
49826;SDS011;35715;51.570;6.036;2023-07-08T13:15:43;5.95;;;5.35;;
49826;SDS011;35715;51.570;6.036;2023-07-08T13:18:13;12.77;;;5.40;;
49826;SDS011;35715;51.570;6.036;2023-07-08T13:20:39;9.65;;;5.38;;
49826;SDS011;35715;51.570;6.036;2023-07-08T13:23:07;8.07;;;4.80;;
49826;SDS011;35715;51.570;6.036;2023-07-08T13:25:33;10.85;;;4.65;;
49826;SDS011;35715;51.570;6.036;2023-07-08T13:28:14;8.35;;;5.00;;
49826;SDS011;35715;51.570;6.036;2023-07-08T13:30:59;6.18;;;4.93;;
49826;SDS011;35715;51.570;6.036;2023-07-08T13:33:30;5.57;;;5.00;;
49826;SDS011;35715;51.570;6.036;2023-07-08T13:35:57;8.35;;;5.57;;
49826;SDS011;35715;51.570;6.036;2023-07-08T13:38:23;4.70;;;4.30;;
49826;SDS011;35715;51.570;6.036;2023-07-08T13:40:54;7.80;;;5.13;;
49826;SDS011;35715;51.570;6.036;2023-07-08T13:43:26;9.30;;;5.93;;
49826;SDS011;35715;51.570;6.036;2023-07-08T13:45:53;6.82;;;4.75;;
49826;SDS011;35715;51.570;6.036;2023-07-08T13:48:39;10.23;;;5.45;;
49826;SDS011;35715;51.570;6.036;2023-07-08T13:51:15;5.85;;;4.82;;
49826;SDS011;35715;51.570;6.036;2023-07-08T13:56:25;10.40;;;5.30;;
49826;SDS011;35715;51.570;6.036;2023-07-08T13:59:00;7.93;;;4.75;;
49826;SDS011;35715;51.570;6.036;2023-07-08T14:01:29;10.73;;;4.90;;
49826;SDS011;35715;51.570;6.036;2023-07-08T14:03:56;6.85;;;5.15;;
49826;SDS011;35715;51.570;6.036;2023-07-08T14:06:24;6.88;;;5.03;;
49826;SDS011;35715;51.570;6.036;2023-07-08T14:08:53;5.13;;;4.63;;
49826;SDS011;35715;51.570;6.036;2023-07-08T14:11:21;7.85;;;5.18;;
49826;SDS011;35715;51.570;6.036;2023-07-08T14:13:46;4.72;;;4.30;;
49826;SDS011;35715;51.570;6.036;2023-07-08T14:16:23;6.40;;;4.97;;
49826;SDS011;35715;51.570;6.036;2023-07-08T14:18:52;8.35;;;5.65;;
49826;SDS011;35715;51.570;6.036;2023-07-08T14:21:19;7.47;;;5.30;;
49826;SDS011;35715;51.570;6.036;2023-07-08T14:23:45;6.40;;;4.93;;
49826;SDS011;35715;51.570;6.036;2023-07-08T14:26:10;6.70;;;4.95;;
49826;SDS011;35715;51.570;6.036;2023-07-08T14:28:36;6.47;;;5.30;;
49826;SDS011;35715;51.570;6.036;2023-07-08T14:31:01;5.68;;;4.72;;
49826;SDS011;35715;51.570;6.036;2023-07-08T14:33:27;6.32;;;4.30;;
49826;SDS011;35715;51.570;6.036;2023-07-08T14:35:52;6.95;;;4.80;;
49826;SDS011;35715;51.570;6.036;2023-07-08T14:38:18;7.55;;;5.15;;
49826;SDS011;35715;51.570;6.036;2023-07-08T14:40:43;7.40;;;4.65;;
49826;SDS011;35715;51.570;6.036;2023-07-08T14:43:14;17.48;;;5.00;;
49826;SDS011;35715;51.570;6.036;2023-07-08T14:45:53;7.30;;;4.65;;
49826;SDS011;35715;51.570;6.036;2023-07-08T14:50:47;7.00;;;4.70;;
49826;SDS011;35715;51.570;6.036;2023-07-08T14:53:13;9.65;;;5.88;;
49826;SDS011;35715;51.570;6.036;2023-07-08T14:55:40;8.52;;;5.22;;
49826;SDS011;35715;51.570;6.036;2023-07-08T14:58:07;7.90;;;5.95;;
49826;SDS011;35715;51.570;6.036;2023-07-08T15:00:42;10.57;;;5.70;;
49826;SDS011;35715;51.570;6.036;2023-07-08T15:03:08;7.07;;;4.65;;
49826;SDS011;35715;51.570;6.036;2023-07-08T15:05:36;8.32;;;5.88;;
49826;SDS011;35715;51.570;6.036;2023-07-08T15:08:01;7.03;;;5.03;;
49826;SDS011;35715;51.570;6.036;2023-07-08T15:10:28;13.15;;;4.78;;
49826;SDS011;35715;51.570;6.036;2023-07-08T15:12:55;9.05;;;5.15;;
49826;SDS011;35715;51.570;6.036;2023-07-08T15:17:58;6.30;;;4.95;;
49826;SDS011;35715;51.570;6.036;2023-07-08T15:20:27;6.25;;;5.13;;
49826;SDS011;35715;51.570;6.036;2023-07-08T15:22:52;18.10;;;6.13;;
49826;SDS011;35715;51.570;6.036;2023-07-08T15:25:18;13.82;;;6.35;;
49826;SDS011;35715;51.570;6.036;2023-07-08T15:27:45;9.13;;;4.55;;
49826;SDS011;35715;51.570;6.036;2023-07-08T15:30:21;8.63;;;4.97;;
49826;SDS011;35715;51.570;6.036;2023-07-08T15:32:48;21.17;;;5.53;;
49826;SDS011;35715;51.570;6.036;2023-07-08T15:35:18;5.32;;;4.72;;
49826;SDS011;35715;51.570;6.036;2023-07-08T15:37:55;6.60;;;5.03;;
49826;SDS011;35715;51.570;6.036;2023-07-08T15:40:21;6.38;;;5.40;;
49826;SDS011;35715;51.570;6.036;2023-07-08T15:42:48;9.23;;;5.60;;